sensor_id;sensor_type;location;lat;lon;timestamp;pressure;altitude;pressure_sealevel;temperature;humidity
10079;BME280;5078;42.544;22.966;2024-01-30T00:02:02;95749.66;;;-1.31;61.52
10079;BME280;5078;42.544;22.966;2024-01-30T00:04:29;95755.38;;;-1.37;61.19
10079;BME280;5078;42.544;22.966;2024-01-30T00:06:57;95743.94;;;-1.41;61.36
10079;BME280;5078;42.544;22.966;2024-01-30T00:09:24;95745.03;;;-1.43;61.23
10079;BME280;5078;42.544;22.966;2024-01-30T00:11:50;95753.31;;;-1.41;61.39
10079;BME280;5078;42.544;22.966;2024-01-30T00:14:17;95763.00;;;-1.45;61.33
10079;BME280;5078;42.544;22.966;2024-01-30T00:16:44;95755.69;;;-1.48;61.63
10079;BME280;5078;42.544;22.966;2024-01-30T00:19:11;95749.63;;;-1.47;61.77
10079;BME280;5078;42.544;22.966;2024-01-30T00:21:38;95757.25;;;-1.47;61.31
10079;BME280;5078;42.544;22.966;2024-01-30T00:24:06;95752.94;;;-1.55;61.83
10079;BME280;5078;42.544;22.966;2024-01-30T00:26:33;95755.81;;;-1.58;61.55
10079;BME280;5078;42.544;22.966;2024-01-30T00:29:00;95753.44;;;-1.51;61.91
10079;BME280;5078;42.544;22.966;2024-01-30T00:31:26;95757.25;;;-1.47;61.81
10079;BME280;5078;42.544;22.966;2024-01-30T00:33:53;95750.41;;;-1.55;61.57
10079;BME280;5078;42.544;22.966;2024-01-30T00:36:19;95754.88;;;-1.49;61.94
10079;BME280;5078;42.544;22.966;2024-01-30T00:38:47;95759.00;;;-1.56;61.86
10079;BME280;5078;42.544;22.966;2024-01-30T00:41:17;95744.50;;;-1.71;61.80
10079;BME280;5078;42.544;22.966;2024-01-30T00:43:44;95756.56;;;-1.65;61.91
10079;BME280;5078;42.544;22.966;2024-01-30T00:46:11;95767.69;;;-1.66;62.32
10079;BME280;5078;42.544;22.966;2024-01-30T00:48:38;95763.25;;;-1.64;62.00
10079;BME280;5078;42.544;22.966;2024-01-30T00:51:04;95761.16;;;-1.69;62.32
10079;BME280;5078;42.544;22.966;2024-01-30T00:53:31;95769.59;;;-1.68;62.25
10079;BME280;5078;42.544;22.966;2024-01-30T00:55:58;95764.66;;;-1.70;61.98
10079;BME280;5078;42.544;22.966;2024-01-30T00:58:26;95768.63;;;-1.75;62.31
10079;BME280;5078;42.544;22.966;2024-01-30T01:00:52;95765.91;;;-1.82;62.45
10079;BME280;5078;42.544;22.966;2024-01-30T01:03:19;95764.31;;;-1.83;62.46
10079;BME280;5078;42.544;22.966;2024-01-30T01:05:46;95773.66;;;-1.83;62.30
10079;BME280;5078;42.544;22.966;2024-01-30T01:08:13;95770.31;;;-1.84;62.62
10079;BME280;5078;42.544;22.966;2024-01-30T01:10:40;95771.91;;;-1.91;62.51
10079;BME280;5078;42.544;22.966;2024-01-30T01:13:07;95771.09;;;-1.91;63.02
10079;BME280;5078;42.544;22.966;2024-01-30T01:15:35;95767.13;;;-1.94;63.20
10079;BME280;5078;42.544;22.966;2024-01-30T01:18:03;95770.78;;;-1.97;63.35
10079;BME280;5078;42.544;22.966;2024-01-30T01:20:29;95763.78;;;-1.94;63.19
10079;BME280;5078;42.544;22.966;2024-01-30T01:22:56;95760.94;;;-1.91;63.09
10079;BME280;5078;42.544;22.966;2024-01-30T01:25:23;95769.34;;;-1.91;63.55
10079;BME280;5078;42.544;22.966;2024-01-30T01:27:49;95757.91;;;-1.95;63.64
10079;BME280;5078;42.544;22.966;2024-01-30T01:30:18;95761.72;;;-1.91;63.38
10079;BME280;5078;42.544;22.966;2024-01-30T01:32:48;95761.91;;;-1.92;63.62
10079;BME280;5078;42.544;22.966;2024-01-30T01:35:21;95763.53;;;-1.75;63.13
10079;BME280;5078;42.544;22.966;2024-01-30T01:37:48;95764.28;;;-1.91;63.17
10079;BME280;5078;42.544;22.966;2024-01-30T01:40:20;95752.41;;;-1.82;63.18
10079;BME280;5078;42.544;22.966;2024-01-30T01:42:47;95765.09;;;-1.82;62.99
10079;BME280;5078;42.544;22.966;2024-01-30T01:45:14;95779.78;;;-2.02;63.73
10079;BME280;5078;42.544;22.966;2024-01-30T01:47:41;95770.81;;;-2.14;64.30
10079;BME280;5078;42.544;22.966;2024-01-30T01:50:09;95770.19;;;-2.16;64.37
10079;BME280;5078;42.544;22.966;2024-01-30T01:52:36;95764.44;;;-1.92;63.75
10079;BME280;5078;42.544;22.966;2024-01-30T01:55:04;95767.28;;;-1.87;63.19
10079;BME280;5078;42.544;22.966;2024-01-30T01:57:33;95775.94;;;-2.06;63.25
10079;BME280;5078;42.544;22.966;2024-01-30T02:00:00;95781.03;;;-2.06;63.34
10079;BME280;5078;42.544;22.966;2024-01-30T02:02:30;95765.16;;;-2.08;62.94
10079;BME280;5078;42.544;22.966;2024-01-30T02:04:57;95773.84;;;-1.85;62.76
10079;BME280;5078;42.544;22.966;2024-01-30T02:07:25;95774.22;;;-2.06;62.88
10079;BME280;5078;42.544;22.966;2024-01-30T02:09:51;95781.09;;;-2.24;63.48
10079;BME280;5078;42.544;22.966;2024-01-30T02:12:18;95777.94;;;-2.18;63.65
10079;BME280;5078;42.544;22.966;2024-01-30T02:14:45;95784.06;;;-2.11;63.67
10079;BME280;5078;42.544;22.966;2024-01-30T02:17:12;95781.69;;;-2.04;62.87
10079;BME280;5078;42.544;22.966;2024-01-30T02:19:39;95767.97;;;-2.19;63.31
10079;BME280;5078;42.544;22.966;2024-01-30T02:22:07;95779.34;;;-1.98;63.03
10079;BME280;5078;42.544;22.966;2024-01-30T02:24:34;95792.41;;;-1.84;62.63
10079;BME280;5078;42.544;22.966;2024-01-30T02:27:00;95781.97;;;-1.81;62.25
10079;BME280;5078;42.544;22.966;2024-01-30T02:29:27;95792.66;;;-1.96;62.46
10079;BME280;5078;42.544;22.966;2024-01-30T02:31:54;95785.75;;;-1.85;62.38
10079;BME280;5078;42.544;22.966;2024-01-30T02:34:21;95796.44;;;-2.08;62.82
10079;BME280;5078;42.544;22.966;2024-01-30T02:36:47;95795.56;;;-1.90;62.83
10079;BME280;5078;42.544;22.966;2024-01-30T02:39:15;95785.53;;;-2.00;63.14
10079;BME280;5078;42.544;22.966;2024-01-30T02:41:42;95794.97;;;-2.10;63.50
10079;BME280;5078;42.544;22.966;2024-01-30T02:44:09;95786.94;;;-2.57;65.19
10079;BME280;5078;42.544;22.966;2024-01-30T02:46:35;95794.28;;;-2.46;65.36
10079;BME280;5078;42.544;22.966;2024-01-30T02:49:02;95796.69;;;-2.70;66.24
10079;BME280;5078;42.544;22.966;2024-01-30T02:51:29;95799.47;;;-2.56;65.99
10079;BME280;5078;42.544;22.966;2024-01-30T02:53:55;95806.78;;;-2.53;66.04
10079;BME280;5078;42.544;22.966;2024-01-30T02:56:23;95803.28;;;-2.77;66.76
10079;BME280;5078;42.544;22.966;2024-01-30T02:58:50;95804.00;;;-2.67;67.08
10079;BME280;5078;42.544;22.966;2024-01-30T03:01:17;95797.53;;;-2.79;67.38
10079;BME280;5078;42.544;22.966;2024-01-30T03:03:43;95769.25;;;-2.84;67.35
10079;BME280;5078;42.544;22.966;2024-01-30T03:06:10;95788.72;;;-2.93;67.49
10079;BME280;5078;42.544;22.966;2024-01-30T03:08:36;95786.09;;;-2.83;67.36
10079;BME280;5078;42.544;22.966;2024-01-30T03:11:03;95793.59;;;-3.00;67.96
10079;BME280;5078;42.544;22.966;2024-01-30T03:13:32;95787.41;;;-2.97;67.89
10079;BME280;5078;42.544;22.966;2024-01-30T03:15:58;95792.06;;;-2.92;67.54
10079;BME280;5078;42.544;22.966;2024-01-30T03:18:25;95786.53;;;-2.70;67.10
10079;BME280;5078;42.544;22.966;2024-01-30T03:20:52;95781.44;;;-2.70;66.79
10079;BME280;5078;42.544;22.966;2024-01-30T03:23:18;95781.88;;;-2.75;66.32
10079;BME280;5078;42.544;22.966;2024-01-30T03:25:45;95778.66;;;-2.59;65.93
10079;BME280;5078;42.544;22.966;2024-01-30T03:28:12;95762.63;;;-2.60;65.55
10079;BME280;5078;42.544;22.966;2024-01-30T03:30:40;95778.44;;;-2.48;65.20
10079;BME280;5078;42.544;22.966;2024-01-30T03:33:06;95783.59;;;-2.58;65.17
10079;BME280;5078;42.544;22.966;2024-01-30T03:35:33;95775.06;;;-2.74;65.68
10079;BME280;5078;42.544;22.966;2024-01-30T03:38:00;95767.34;;;-2.65;65.75
10079;BME280;5078;42.544;22.966;2024-01-30T03:40:26;95762.50;;;-2.76;65.84
10079;BME280;5078;42.544;22.966;2024-01-30T03:42:53;95775.88;;;-2.74;66.10
10079;BME280;5078;42.544;22.966;2024-01-30T03:45:20;95770.72;;;-2.82;66.00
10079;BME280;5078;42.544;22.966;2024-01-30T03:47:47;95775.19;;;-2.76;66.13
10079;BME280;5078;42.544;22.966;2024-01-30T03:50:14;95766.72;;;-2.84;66.24
10079;BME280;5078;42.544;22.966;2024-01-30T03:52:41;95758.78;;;-2.89;66.58
10079;BME280;5078;42.544;22.966;2024-01-30T03:55:08;95757.69;;;-2.87;66.85
10079;BME280;5078;42.544;22.966;2024-01-30T03:57:33;95766.69;;;-2.92;66.85
10079;BME280;5078;42.544;22.966;2024-01-30T04:00:00;95764.28;;;-2.94;66.92
10079;BME280;5078;42.544;22.966;2024-01-30T04:02:30;95775.59;;;-2.88;66.72
10079;BME280;5078;42.544;22.966;2024-01-30T04:04:58;95755.31;;;-2.88;66.93
10079;BME280;5078;42.544;22.966;2024-01-30T04:07:25;95766.72;;;-2.84;66.59
10079;BME280;5078;42.544;22.966;2024-01-30T04:09:51;95769.50;;;-2.78;66.35
10079;BME280;5078;42.544;22.966;2024-01-30T04:12:18;95760.88;;;-3.03;66.54
10079;BME280;5078;42.544;22.966;2024-01-30T04:14:45;95756.00;;;-2.78;65.78
10079;BME280;5078;42.544;22.966;2024-01-30T04:17:11;95762.53;;;-2.93;66.39
10079;BME280;5078;42.544;22.966;2024-01-30T04:19:38;95761.56;;;-3.18;66.67
10079;BME280;5078;42.544;22.966;2024-01-30T04:22:06;95771.06;;;-2.77;66.00
10079;BME280;5078;42.544;22.966;2024-01-30T04:24:33;95771.25;;;-2.96;66.05
10079;BME280;5078;42.544;22.966;2024-01-30T04:27:00;95772.19;;;-2.97;65.94
10079;BME280;5078;42.544;22.966;2024-01-30T04:29:26;95766.28;;;-2.80;65.40
10079;BME280;5078;42.544;22.966;2024-01-30T04:31:53;95768.53;;;-2.59;64.48
10079;BME280;5078;42.544;22.966;2024-01-30T04:34:20;95771.56;;;-2.56;64.42
10079;BME280;5078;42.544;22.966;2024-01-30T04:36:46;95772.16;;;-2.79;64.44
10079;BME280;5078;42.544;22.966;2024-01-30T04:39:14;95744.50;;;-2.65;63.54
10079;BME280;5078;42.544;22.966;2024-01-30T04:41:41;95774.97;;;-2.39;62.74
10079;BME280;5078;42.544;22.966;2024-01-30T04:44:07;95778.25;;;-2.47;61.03
10079;BME280;5078;42.544;22.966;2024-01-30T04:46:34;95771.09;;;-2.51;61.48
10079;BME280;5078;42.544;22.966;2024-01-30T04:49:01;95771.75;;;-2.23;61.31
10079;BME280;5078;42.544;22.966;2024-01-30T04:51:28;95772.34;;;-2.55;62.30
10079;BME280;5078;42.544;22.966;2024-01-30T04:53:55;95774.69;;;-2.36;61.54
10079;BME280;5078;42.544;22.966;2024-01-30T04:56:23;95786.44;;;-2.35;61.62
10079;BME280;5078;42.544;22.966;2024-01-30T04:58:50;95785.00;;;-2.63;62.55
10079;BME280;5078;42.544;22.966;2024-01-30T05:01:17;95795.94;;;-2.63;61.80
10079;BME280;5078;42.544;22.966;2024-01-30T05:03:44;95806.31;;;-2.74;63.21
10079;BME280;5078;42.544;22.966;2024-01-30T05:06:10;95798.38;;;-2.53;62.29
10079;BME280;5078;42.544;22.966;2024-01-30T05:08:37;95800.19;;;-2.46;62.29
10079;BME280;5078;42.544;22.966;2024-01-30T05:11:05;95801.78;;;-2.62;62.63
10079;BME280;5078;42.544;22.966;2024-01-30T05:13:34;95800.69;;;-2.42;61.98
10079;BME280;5078;42.544;22.966;2024-01-30T05:16:02;95796.22;;;-2.66;62.43
10079;BME280;5078;42.544;22.966;2024-01-30T05:18:29;95792.81;;;-2.57;62.00
10079;BME280;5078;42.544;22.966;2024-01-30T05:20:56;95807.06;;;-2.38;61.45
10079;BME280;5078;42.544;22.966;2024-01-30T05:23:22;95806.44;;;-2.58;62.19
10079;BME280;5078;42.544;22.966;2024-01-30T05:25:49;95806.44;;;-2.58;62.12
10079;BME280;5078;42.544;22.966;2024-01-30T05:28:16;95813.28;;;-2.76;63.46
10079;BME280;5078;42.544;22.966;2024-01-30T05:30:44;95807.16;;;-2.65;62.81
10079;BME280;5078;42.544;22.966;2024-01-30T05:33:10;95808.19;;;-2.76;63.29
10079;BME280;5078;42.544;22.966;2024-01-30T05:35:38;95813.78;;;-2.90;65.21
10079;BME280;5078;42.544;22.966;2024-01-30T05:38:05;95818.81;;;-2.55;63.77
10079;BME280;5078;42.544;22.966;2024-01-30T05:40:32;95812.28;;;-3.01;64.32
10079;BME280;5078;42.544;22.966;2024-01-30T05:42:58;95811.38;;;-2.56;64.29
10079;BME280;5078;42.544;22.966;2024-01-30T05:45:26;95805.44;;;-2.65;63.52
10079;BME280;5078;42.544;22.966;2024-01-30T05:47:55;95806.31;;;-2.30;63.54
10079;BME280;5078;42.544;22.966;2024-01-30T05:50:22;95810.19;;;-2.18;62.34
10079;BME280;5078;42.544;22.966;2024-01-30T05:52:48;95810.47;;;-2.21;61.83
10079;BME280;5078;42.544;22.966;2024-01-30T05:55:15;95803.34;;;-2.18;62.15
10079;BME280;5078;42.544;22.966;2024-01-30T05:57:42;95806.06;;;-2.19;61.83
10079;BME280;5078;42.544;22.966;2024-01-30T06:00:09;95799.50;;;-2.30;62.70
10079;BME280;5078;42.544;22.966;2024-01-30T06:02:36;95799.94;;;-2.34;62.51
10079;BME280;5078;42.544;22.966;2024-01-30T06:05:04;95809.66;;;-2.30;62.67
10079;BME280;5078;42.544;22.966;2024-01-30T06:07:31;95801.28;;;-2.22;63.06
10079;BME280;5078;42.544;22.966;2024-01-30T06:09:58;95800.06;;;-2.10;61.99
10079;BME280;5078;42.544;22.966;2024-01-30T06:12:26;95809.66;;;-2.04;61.36
10079;BME280;5078;42.544;22.966;2024-01-30T06:14:53;95824.28;;;-1.98;60.87
10079;BME280;5078;42.544;22.966;2024-01-30T06:17:22;95812.19;;;-2.30;61.11
10079;BME280;5078;42.544;22.966;2024-01-30T06:19:49;95812.25;;;-2.22;61.44
10079;BME280;5078;42.544;22.966;2024-01-30T06:22:17;95819.44;;;-2.35;61.98
10079;BME280;5078;42.544;22.966;2024-01-30T06:24:43;95823.78;;;-2.27;61.73
10079;BME280;5078;42.544;22.966;2024-01-30T06:27:13;95823.69;;;-2.18;61.02
10079;BME280;5078;42.544;22.966;2024-01-30T06:29:40;95824.09;;;-1.71;60.36
10079;BME280;5078;42.544;22.966;2024-01-30T06:32:06;95803.31;;;-1.58;59.69
10079;BME280;5078;42.544;22.966;2024-01-30T06:34:33;95813.75;;;-1.27;58.96
10079;BME280;5078;42.544;22.966;2024-01-30T06:37:00;95812.72;;;-0.92;58.33
10079;BME280;5078;42.544;22.966;2024-01-30T06:39:28;95816.53;;;-0.64;55.93
10079;BME280;5078;42.544;22.966;2024-01-30T06:41:55;95819.88;;;-0.64;55.98
10079;BME280;5078;42.544;22.966;2024-01-30T07:01:43;95806.06;;;0.57;50.61
10079;BME280;5078;42.544;22.966;2024-01-30T07:04:09;95810.81;;;0.99;51.11
10079;BME280;5078;42.544;22.966;2024-01-30T07:06:36;95814.09;;;1.30;48.60
10079;BME280;5078;42.544;22.966;2024-01-30T07:09:03;95811.69;;;1.89;47.31
10079;BME280;5078;42.544;22.966;2024-01-30T07:11:30;95803.72;;;1.32;47.60
10079;BME280;5078;42.544;22.966;2024-01-30T07:13:57;95813.72;;;1.93;47.50
10079;BME280;5078;42.544;22.966;2024-01-30T07:16:24;95812.34;;;1.31;48.42
10079;BME280;5078;42.544;22.966;2024-01-30T07:18:52;95813.47;;;1.28;48.15
10079;BME280;5078;42.544;22.966;2024-01-30T07:21:18;95809.94;;;1.52;47.41
10079;BME280;5078;42.544;22.966;2024-01-30T07:23:47;95801.63;;;1.87;46.48
10079;BME280;5078;42.544;22.966;2024-01-30T07:26:13;95808.34;;;2.03;46.83
10079;BME280;5078;42.544;22.966;2024-01-30T07:28:40;95806.84;;;1.94;47.19
10079;BME280;5078;42.544;22.966;2024-01-30T07:31:07;95799.25;;;1.48;47.65
10079;BME280;5078;42.544;22.966;2024-01-30T07:33:33;95808.25;;;1.96;46.37
10079;BME280;5078;42.544;22.966;2024-01-30T07:36:02;95798.78;;;1.82;46.48
10079;BME280;5078;42.544;22.966;2024-01-30T07:38:31;95804.47;;;2.22;45.98
10079;BME280;5078;42.544;22.966;2024-01-30T07:40:58;95804.53;;;2.58;43.96
10079;BME280;5078;42.544;22.966;2024-01-30T07:43:25;95806.69;;;2.90;43.50
10079;BME280;5078;42.544;22.966;2024-01-30T07:45:51;95791.38;;;2.61;43.89
10079;BME280;5078;42.544;22.966;2024-01-30T07:48:18;95807.47;;;2.90;42.96
10079;BME280;5078;42.544;22.966;2024-01-30T07:50:45;95795.38;;;3.20;43.56
10079;BME280;5078;42.544;22.966;2024-01-30T07:53:13;95792.13;;;3.54;43.38
10079;BME280;5078;42.544;22.966;2024-01-30T07:55:40;95797.00;;;3.49;41.06
10079;BME280;5078;42.544;22.966;2024-01-30T07:58:09;95799.28;;;4.21;41.27
10079;BME280;5078;42.544;22.966;2024-01-30T08:00:35;95792.16;;;4.57;39.99
10079;BME280;5078;42.544;22.966;2024-01-30T08:03:03;95782.53;;;4.72;39.67
10079;BME280;5078;42.544;22.966;2024-01-30T08:05:29;95784.38;;;4.44;40.08
10079;BME280;5078;42.544;22.966;2024-01-30T08:07:56;95790.13;;;4.05;40.16
10079;BME280;5078;42.544;22.966;2024-01-30T08:10:24;95792.72;;;3.56;41.54
10079;BME280;5078;42.544;22.966;2024-01-30T08:12:51;95787.19;;;3.31;41.83
10079;BME280;5078;42.544;22.966;2024-01-30T08:15:18;95796.34;;;3.19;43.78
10079;BME280;5078;42.544;22.966;2024-01-30T08:17:44;95799.00;;;2.90;43.05
10079;BME280;5078;42.544;22.966;2024-01-30T08:20:11;95808.78;;;3.22;42.38
10079;BME280;5078;42.544;22.966;2024-01-30T08:22:39;95795.78;;;3.24;42.53
10079;BME280;5078;42.544;22.966;2024-01-30T08:25:06;95806.78;;;3.39;42.37
10079;BME280;5078;42.544;22.966;2024-01-30T08:27:36;95798.22;;;3.81;41.60
10079;BME280;5078;42.544;22.966;2024-01-30T08:30:05;95806.09;;;4.07;40.67
10079;BME280;5078;42.544;22.966;2024-01-30T08:32:31;95809.41;;;3.95;40.23
10079;BME280;5078;42.544;22.966;2024-01-30T08:34:58;95813.09;;;3.01;42.59
10079;BME280;5078;42.544;22.966;2024-01-30T08:37:25;95815.38;;;3.31;42.63
10079;BME280;5078;42.544;22.966;2024-01-30T08:39:52;95810.84;;;3.76;41.97
10079;BME280;5078;42.544;22.966;2024-01-30T08:42:19;95812.31;;;3.64;41.34
10079;BME280;5078;42.544;22.966;2024-01-30T08:44:49;95803.47;;;3.94;40.86
10079;BME280;5078;42.544;22.966;2024-01-30T08:47:16;95800.03;;;4.15;40.11
10079;BME280;5078;42.544;22.966;2024-01-30T08:49:44;95794.84;;;4.36;39.66
10079;BME280;5078;42.544;22.966;2024-01-30T08:52:10;95802.91;;;3.99;40.79
10079;BME280;5078;42.544;22.966;2024-01-30T08:54:37;95799.44;;;4.13;40.40
10079;BME280;5078;42.544;22.966;2024-01-30T08:57:04;95807.34;;;4.18;40.14
10079;BME280;5078;42.544;22.966;2024-01-30T08:59:31;95798.72;;;4.25;39.70
10079;BME280;5078;42.544;22.966;2024-01-30T09:01:59;95794.59;;;4.31;39.16
10079;BME280;5078;42.544;22.966;2024-01-30T09:04:25;95807.47;;;4.03;39.74
10079;BME280;5078;42.544;22.966;2024-01-30T09:06:52;95802.91;;;3.99;40.67
10079;BME280;5078;42.544;22.966;2024-01-30T09:09:19;95799.34;;;4.34;38.88
10079;BME280;5078;42.544;22.966;2024-01-30T09:11:46;95795.09;;;4.13;40.33
10079;BME280;5078;42.544;22.966;2024-01-30T09:14:12;95800.66;;;4.17;40.04
10079;BME280;5078;42.544;22.966;2024-01-30T09:16:39;95799.00;;;4.03;40.50
10079;BME280;5078;42.544;22.966;2024-01-30T09:19:07;95798.75;;;3.98;40.20
10079;BME280;5078;42.544;22.966;2024-01-30T09:21:34;95799.19;;;4.35;39.29
10079;BME280;5078;42.544;22.966;2024-01-30T09:24:04;95799.31;;;4.62;39.88
10079;BME280;5078;42.544;22.966;2024-01-30T09:26:31;95796.63;;;4.08;40.55
10079;BME280;5078;42.544;22.966;2024-01-30T09:28:58;95797.56;;;4.75;39.96
10079;BME280;5078;42.544;22.966;2024-01-30T09:31:24;95796.63;;;4.89;38.60
10079;BME280;5078;42.544;22.966;2024-01-30T09:33:51;95789.84;;;4.69;38.60
10079;BME280;5078;42.544;22.966;2024-01-30T09:36:20;95791.22;;;4.71;38.95
10079;BME280;5078;42.544;22.966;2024-01-30T09:38:47;95785.53;;;4.35;39.18
10079;BME280;5078;42.544;22.966;2024-01-30T09:41:14;95785.25;;;4.58;39.85
10079;BME280;5078;42.544;22.966;2024-01-30T09:43:44;95785.69;;;4.74;39.01
10079;BME280;5078;42.544;22.966;2024-01-30T09:46:15;95789.28;;;4.80;39.01
10079;BME280;5078;42.544;22.966;2024-01-30T09:48:43;95770.69;;;4.30;39.39
10079;BME280;5078;42.544;22.966;2024-01-30T09:51:09;95782.44;;;4.12;40.17
10079;BME280;5078;42.544;22.966;2024-01-30T09:53:39;95781.31;;;3.86;40.30
10079;BME280;5078;42.544;22.966;2024-01-30T09:56:06;95785.72;;;3.43;41.28
10079;BME280;5078;42.544;22.966;2024-01-30T09:58:33;95791.81;;;3.00;41.74
10079;BME280;5078;42.544;22.966;2024-01-30T10:01:00;95783.81;;;3.31;42.14
10079;BME280;5078;42.544;22.966;2024-01-30T10:03:26;95788.13;;;3.52;41.49
10079;BME280;5078;42.544;22.966;2024-01-30T10:05:55;95779.72;;;3.58;41.11
10079;BME280;5078;42.544;22.966;2024-01-30T10:08:22;95786.63;;;3.57;41.76
10079;BME280;5078;42.544;22.966;2024-01-30T10:10:50;95783.16;;;3.43;42.20
10079;BME280;5078;42.544;22.966;2024-01-30T10:13:17;95793.09;;;3.53;41.22
10079;BME280;5078;42.544;22.966;2024-01-30T10:15:44;95792.53;;;3.15;41.94
10079;BME280;5078;42.544;22.966;2024-01-30T10:18:11;95786.81;;;3.34;42.75
10079;BME280;5078;42.544;22.966;2024-01-30T10:20:38;95778.97;;;3.64;41.57
10079;BME280;5078;42.544;22.966;2024-01-30T10:23:04;95775.94;;;4.09;41.11
10079;BME280;5078;42.544;22.966;2024-01-30T10:25:31;95775.41;;;4.20;40.31
10079;BME280;5078;42.544;22.966;2024-01-30T10:27:59;95763.41;;;4.00;40.30
10079;BME280;5078;42.544;22.966;2024-01-30T10:30:27;95769.03;;;3.82;40.70
10079;BME280;5078;42.544;22.966;2024-01-30T10:32:53;95760.69;;;3.73;41.62
10079;BME280;5078;42.544;22.966;2024-01-30T10:35:20;95757.25;;;3.87;41.75
10079;BME280;5078;42.544;22.966;2024-01-30T10:37:47;95768.38;;;3.73;42.03
10079;BME280;5078;42.544;22.966;2024-01-30T10:40:14;95770.19;;;4.07;42.08
10079;BME280;5078;42.544;22.966;2024-01-30T10:42:43;95763.25;;;4.42;40.52
10079;BME280;5078;42.544;22.966;2024-01-30T10:45:12;95760.00;;;4.74;39.82
10079;BME280;5078;42.544;22.966;2024-01-30T10:47:43;95743.22;;;4.72;39.75
10079;BME280;5078;42.544;22.966;2024-01-30T10:50:10;95758.16;;;4.55;39.64
10079;BME280;5078;42.544;22.966;2024-01-30T10:52:37;95755.56;;;4.49;39.22
10079;BME280;5078;42.544;22.966;2024-01-30T10:55:05;95751.19;;;4.36;39.68
10079;BME280;5078;42.544;22.966;2024-01-30T10:57:34;95749.72;;;4.20;40.94
10079;BME280;5078;42.544;22.966;2024-01-30T11:00:03;95740.63;;;4.18;40.16
10079;BME280;5078;42.544;22.966;2024-01-30T11:02:37;95747.88;;;4.49;39.33
10079;BME280;5078;42.544;22.966;2024-01-30T11:05:05;95733.41;;;3.38;41.68
10079;BME280;5078;42.544;22.966;2024-01-30T11:07:34;95732.03;;;3.98;41.16
10079;BME280;5078;42.544;22.966;2024-01-30T11:10:02;95724.94;;;4.00;41.14
10079;BME280;5078;42.544;22.966;2024-01-30T11:12:30;95722.75;;;3.97;41.62
10079;BME280;5078;42.544;22.966;2024-01-30T11:15:03;95710.84;;;4.23;40.62
10079;BME280;5078;42.544;22.966;2024-01-30T11:17:44;95715.56;;;4.20;40.13
10079;BME280;5078;42.544;22.966;2024-01-30T11:20:12;95728.91;;;4.43;39.92
10079;BME280;5078;42.544;22.966;2024-01-30T11:22:42;95721.34;;;3.87;40.32
10079;BME280;5078;42.544;22.966;2024-01-30T11:25:13;95717.88;;;4.08;40.56
10079;BME280;5078;42.544;22.966;2024-01-30T11:27:41;95715.28;;;4.43;40.17
10079;BME280;5078;42.544;22.966;2024-01-30T11:30:08;95706.09;;;4.20;39.77
10079;BME280;5078;42.544;22.966;2024-01-30T11:32:35;95706.63;;;4.57;39.81
10079;BME280;5078;42.544;22.966;2024-01-30T11:35:05;95710.44;;;4.87;39.47
10079;BME280;5078;42.544;22.966;2024-01-30T11:37:36;95721.38;;;4.41;39.48
10079;BME280;5078;42.544;22.966;2024-01-30T11:40:05;95717.31;;;4.13;40.29
10079;BME280;5078;42.544;22.966;2024-01-30T11:42:32;95710.75;;;4.04;41.17
10079;BME280;5078;42.544;22.966;2024-01-30T11:45:00;95710.13;;;3.61;41.58
10079;BME280;5078;42.544;22.966;2024-01-30T11:47:28;95701.03;;;3.99;41.27
10079;BME280;5078;42.544;22.966;2024-01-30T11:49:54;95700.84;;;3.94;41.70
10079;BME280;5078;42.544;22.966;2024-01-30T11:52:23;95696.22;;;4.17;41.14
10079;BME280;5078;42.544;22.966;2024-01-30T11:54:49;95693.09;;;4.28;39.84
10079;BME280;5078;42.544;22.966;2024-01-30T11:57:16;95690.94;;;4.32;40.98
10079;BME280;5078;42.544;22.966;2024-01-30T11:59:43;95691.63;;;4.67;40.28
10079;BME280;5078;42.544;22.966;2024-01-30T12:02:15;95694.63;;;4.16;40.45
10079;BME280;5078;42.544;22.966;2024-01-30T12:04:43;95691.63;;;4.06;40.16
10079;BME280;5078;42.544;22.966;2024-01-30T12:07:09;95688.69;;;4.16;40.46
10079;BME280;5078;42.544;22.966;2024-01-30T12:09:38;95694.09;;;3.59;41.84
10079;BME280;5078;42.544;22.966;2024-01-30T12:12:06;95698.34;;;3.73;41.52
10079;BME280;5078;42.544;22.966;2024-01-30T12:14:38;95681.59;;;3.42;42.88
10079;BME280;5078;42.544;22.966;2024-01-30T12:17:05;95680.56;;;3.09;43.92
10079;BME280;5078;42.544;22.966;2024-01-30T12:19:33;95680.88;;;3.55;42.62
10079;BME280;5078;42.544;22.966;2024-01-30T12:21:59;95667.97;;;3.42;42.97
10079;BME280;5078;42.544;22.966;2024-01-30T12:24:26;95668.00;;;3.76;41.89
10079;BME280;5078;42.544;22.966;2024-01-30T12:26:58;95661.72;;;3.51;41.77
10079;BME280;5078;42.544;22.966;2024-01-30T12:29:25;95650.41;;;3.11;43.92
10079;BME280;5078;42.544;22.966;2024-01-30T12:31:53;95646.91;;;3.19;43.04
10079;BME280;5078;42.544;22.966;2024-01-30T12:34:20;95642.72;;;2.83;44.21
10079;BME280;5078;42.544;22.966;2024-01-30T12:36:47;95643.06;;;3.02;44.61
10079;BME280;5078;42.544;22.966;2024-01-30T12:39:14;95638.53;;;3.31;43.91
10079;BME280;5078;42.544;22.966;2024-01-30T12:41:41;95630.19;;;3.23;44.61
10079;BME280;5078;42.544;22.966;2024-01-30T12:44:09;95622.66;;;3.49;43.22
10079;BME280;5078;42.544;22.966;2024-01-30T12:46:36;95629.63;;;3.27;43.51
10079;BME280;5078;42.544;22.966;2024-01-30T12:49:02;95636.28;;;3.22;43.89
10079;BME280;5078;42.544;22.966;2024-01-30T12:51:29;95629.97;;;3.52;43.71
10079;BME280;5078;42.544;22.966;2024-01-30T12:53:56;95612.47;;;3.62;43.11
10079;BME280;5078;42.544;22.966;2024-01-30T12:56:22;95621.50;;;2.96;44.88
10079;BME280;5078;42.544;22.966;2024-01-30T12:58:49;95615.94;;;3.14;44.41
10079;BME280;5078;42.544;22.966;2024-01-30T13:01:17;95618.84;;;3.11;44.81
10079;BME280;5078;42.544;22.966;2024-01-30T13:03:44;95617.19;;;2.97;44.61
10079;BME280;5078;42.544;22.966;2024-01-30T13:06:10;95606.19;;;2.75;44.25
10079;BME280;5078;42.544;22.966;2024-01-30T13:08:37;95612.41;;;2.87;43.61
10079;BME280;5078;42.544;22.966;2024-01-30T13:11:04;95592.28;;;2.63;44.80
10079;BME280;5078;42.544;22.966;2024-01-30T13:13:31;95602.06;;;2.53;45.36
10079;BME280;5078;42.544;22.966;2024-01-30T13:15:58;95609.06;;;2.65;45.83
10079;BME280;5078;42.544;22.966;2024-01-30T13:18:26;95598.19;;;2.63;45.46
10079;BME280;5078;42.544;22.966;2024-01-30T13:20:52;95600.94;;;2.83;45.45
10079;BME280;5078;42.544;22.966;2024-01-30T13:23:19;95605.88;;;2.84;45.50